createdAt,value
2018-04-28T00:03:14.377Z,9.40
2018-04-28T00:07:48.327Z,9.50
2018-04-28T00:12:22.122Z,9.40
2018-04-28T00:17:02.587Z,9.30
2018-04-28T00:27:08.129Z,9.30
2018-04-28T00:32:06.918Z,9.30
2018-04-28T00:36:44.827Z,9.30
2018-04-28T00:41:18.774Z,9.20
2018-04-28T00:45:56.562Z,9.10
2018-04-28T00:50:31.313Z,9.30
2018-04-28T00:55:16.029Z,9.40
2018-04-28T01:00:00.013Z,9.30
2018-04-28T01:04:40.794Z,9.30
2018-04-28T01:09:14.912Z,9.30
2018-04-28T01:14:05.579Z,9.30
2018-04-28T01:23:59.322Z,9.00
2018-04-28T01:28:55.962Z,9.00
2018-04-28T01:33:54.566Z,8.80
2018-04-28T01:38:42.667Z,8.80
2018-04-28T01:43:26.689Z,8.80
2018-04-28T01:48:07.185Z,8.60
2018-04-28T01:52:40.379Z,8.50
2018-04-28T01:57:19.571Z,8.50
2018-04-28T02:01:52.750Z,8.40
2018-04-28T02:11:25.318Z,8.20
2018-04-28T02:15:59.257Z,8.10
2018-04-28T02:25:55.725Z,8.00
2018-04-28T02:30:30.452Z,7.90
2018-04-28T02:35:12.034Z,7.90
2018-04-28T02:39:45.955Z,7.70
2018-04-28T02:44:21.967Z,7.60
2018-04-28T02:54:00.787Z,7.60
2018-04-28T02:58:34.773Z,7.50
2018-04-28T03:03:17.989Z,7.40
2018-04-28T03:07:57.716Z,7.40
2018-04-28T03:12:31.199Z,7.40
2018-04-28T03:17:08.168Z,7.40
2018-04-28T03:21:43.194Z,7.30
2018-04-28T03:26:19.011Z,7.20
2018-04-28T03:35:57.601Z,6.90
2018-04-28T03:40:30.798Z,6.90
2018-04-28T03:45:04.464Z,6.80
2018-04-28T03:49:37.687Z,6.90
2018-04-28T03:54:26.534Z,6.90
2018-04-28T03:59:11.546Z,6.90
2018-04-28T04:03:58.071Z,6.80
2018-04-28T04:08:37.970Z,6.80
2018-04-28T04:13:12.119Z,6.80
2018-04-28T04:17:54.120Z,6.70
2018-04-28T04:27:32.344Z,6.60
2018-04-28T04:32:16.732Z,6.60
2018-04-28T04:36:55.875Z,6.50
2018-04-28T04:41:45.570Z,6.50
2018-04-28T04:46:21.683Z,6.50
2018-04-28T04:51:01.533Z,6.60
2018-04-28T05:01:01.785Z,6.80
2018-04-28T05:05:37.053Z,6.90
2018-04-28T05:10:19.837Z,7.10
2018-04-28T05:15:04.833Z,7.20
2018-04-28T05:24:49.077Z,7.60
2018-04-28T05:29:33.297Z,7.80
2018-04-28T05:34:29.030Z,8.10
2018-04-28T05:54:56.849Z,13.00
2018-04-28T05:59:41.937Z,12.90
2018-04-28T06:04:26.908Z,12.20
2018-04-28T06:14:34.607Z,11.50
2018-04-28T06:24:31.448Z,11.70
2018-04-28T06:29:05.423Z,12.20
2018-04-28T06:33:38.586Z,12.20
2018-04-28T06:38:12.554Z,12.90
2018-04-28T06:42:45.762Z,12.80
2018-04-28T06:47:18.954Z,13.10
2018-04-28T06:51:52.147Z,13.30
2018-04-28T06:56:26.774Z,13.50
2018-04-28T07:00:59.966Z,13.70
2018-04-28T07:05:33.933Z,14.30
2018-04-28T07:10:07.214Z,14.20
2018-04-28T07:14:40.379Z,14.50
2018-04-28T07:19:13.574Z,14.90
2018-04-28T07:23:47.021Z,15.30
2018-04-28T07:28:20.241Z,15.60
2018-04-28T07:32:54.197Z,16.20
2018-04-28T07:37:29.202Z,16.20
2018-04-28T07:42:03.140Z,17.10
2018-04-28T07:46:38.146Z,17.00
2018-04-28T07:51:11.337Z,17.30
2018-04-28T07:55:44.533Z,17.70
2018-04-28T08:00:17.864Z,18.20
2018-04-28T08:04:51.046Z,19.20
2018-04-28T08:09:24.263Z,21.20
2018-04-28T08:13:57.446Z,23.10
2018-04-28T08:18:30.642Z,24.20
2018-04-28T08:23:03.848Z,25.60
2018-04-28T08:27:37.049Z,25.80
2018-04-28T08:32:10.974Z,27.70
2018-04-28T08:36:44.163Z,27.60
2018-04-28T08:41:18.133Z,28.20
2018-04-28T08:45:51.318Z,28.00
2018-04-28T08:50:25.058Z,27.70
2018-04-28T08:54:58.228Z,27.10
2018-04-28T08:59:44.974Z,27.20
2018-04-28T09:04:18.249Z,27.10
2018-04-28T09:08:54.083Z,27.30
2018-04-28T09:13:27.267Z,27.20
2018-04-28T09:18:00.466Z,27.60
2018-04-28T09:22:33.642Z,26.50
2018-04-28T09:27:07.591Z,23.60
2018-04-28T09:31:40.779Z,23.40
2018-04-28T09:36:23.219Z,25.00
2018-04-28T09:41:01.975Z,27.50
2018-04-28T09:45:35.530Z,27.40
2018-04-28T09:50:10.924Z,27.60
2018-04-28T09:54:48.580Z,27.50
2018-04-28T09:59:24.105Z,27.00
2018-04-28T10:04:17.735Z,26.70
2018-04-28T10:08:52.430Z,25.10
2018-04-28T10:13:25.642Z,25.10
2018-04-28T10:17:58.808Z,26.20
2018-04-28T10:22:31.994Z,26.30
2018-04-28T10:27:05.173Z,26.30
2018-04-28T10:31:38.478Z,25.10
2018-04-28T10:36:13.489Z,23.60
2018-04-28T10:40:47.447Z,23.20
2018-04-28T10:45:20.607Z,23.10
2018-04-28T10:49:53.789Z,25.00
2018-04-28T10:54:27.027Z,26.50
2018-04-28T10:59:00.954Z,27.10
2018-04-28T11:03:34.945Z,27.10
2018-04-28T11:08:08.996Z,27.10
2018-04-28T11:12:42.412Z,26.40
2018-04-28T11:17:16.384Z,26.70
2018-04-28T11:21:49.590Z,26.60
2018-04-28T11:26:23.179Z,24.90
2018-04-28T11:30:56.398Z,23.40
2018-04-28T11:35:29.566Z,22.20
2018-04-28T11:40:02.753Z,21.40
2018-04-28T11:44:35.958Z,21.00
2018-04-28T11:49:09.231Z,20.80
2018-04-28T11:53:42.436Z,20.90
2018-04-28T11:58:15.628Z,21.10
2018-04-28T12:02:48.822Z,21.40
2018-04-28T12:07:22.784Z,21.60
2018-04-28T12:11:55.975Z,21.50
2018-04-28T12:16:29.158Z,21.50
2018-04-28T12:21:03.351Z,22.10
2018-04-28T12:25:36.538Z,22.10
2018-04-28T12:30:09.735Z,22.20
2018-04-28T12:34:42.923Z,21.90
2018-04-28T12:39:16.211Z,22.10
2018-04-28T12:43:50.178Z,21.80
2018-04-28T12:48:23.577Z,21.70
2018-04-28T12:52:56.894Z,22.70
2018-04-28T12:57:30.122Z,23.40
2018-04-28T13:02:03.336Z,23.10
2018-04-28T13:06:36.511Z,22.80
2018-04-28T13:11:09.910Z,22.60
2018-04-28T13:15:43.117Z,22.40
2018-04-28T13:20:16.347Z,22.30
2018-04-28T13:24:49.568Z,22.10
2018-04-28T13:29:22.756Z,22.40
2018-04-28T13:33:55.975Z,22.40
2018-04-28T13:38:29.190Z,21.70
2018-04-28T13:43:02.398Z,21.10
2018-04-28T13:47:35.806Z,20.70
2018-04-28T13:52:08.980Z,20.30
2018-04-28T13:56:42.173Z,19.90
2018-04-28T14:01:15.994Z,19.80
2018-04-28T14:05:49.287Z,19.70
2018-04-28T14:10:22.518Z,19.20
2018-04-28T14:14:55.710Z,18.60
2018-04-28T14:19:29.693Z,17.90
2018-04-28T14:24:02.947Z,17.80
2018-04-28T14:28:36.183Z,17.60
2018-04-28T14:33:09.383Z,17.30
2018-04-28T14:37:42.587Z,16.90
2018-04-28T14:42:15.926Z,16.60
2018-04-28T14:46:49.207Z,16.20
2018-04-28T14:51:22.361Z,15.70
2018-04-28T14:55:55.642Z,15.50
2018-04-28T15:00:28.962Z,15.50
2018-04-28T15:05:02.971Z,15.80
2018-04-28T15:09:36.202Z,15.70
2018-04-28T15:14:09.345Z,15.70
2018-04-28T15:18:43.345Z,15.60
2018-04-28T15:23:17.320Z,15.60
2018-04-28T15:27:50.614Z,15.60
2018-04-28T15:32:23.830Z,15.50
2018-04-28T15:36:57.000Z,15.50
2018-04-28T15:41:31.814Z,15.60
2018-04-28T15:46:04.985Z,15.50
2018-04-28T15:50:38.895Z,15.70
2018-04-28T15:55:12.156Z,15.90
2018-04-28T15:59:45.330Z,16.10
2018-04-28T16:04:20.621Z,16.20
2018-04-28T16:08:53.811Z,16.40
2018-04-28T16:13:27.014Z,16.60
2018-04-28T16:18:00.378Z,16.60
2018-04-28T16:22:34.313Z,16.70
2018-04-28T16:27:07.558Z,16.70
2018-04-28T16:31:40.763Z,16.60
2018-04-28T16:36:15.634Z,16.50
2018-04-28T16:40:49.593Z,16.20
2018-04-28T16:45:23.549Z,16.10
2018-04-28T16:49:56.815Z,16.10
2018-04-28T16:54:30.847Z,15.90
2018-04-28T16:59:04.866Z,15.90
2018-04-28T17:03:38.022Z,15.80
2018-04-28T17:08:12.547Z,15.90
2018-04-28T17:12:45.725Z,15.90
2018-04-28T17:17:31.546Z,15.80
2018-04-28T17:22:04.738Z,15.70
2018-04-28T17:26:38.234Z,15.60
2018-04-28T17:31:12.168Z,15.30
2018-04-28T17:35:46.219Z,15.20
2018-04-28T17:40:19.381Z,15.20
2018-04-28T17:44:53.304Z,15.10
2018-04-28T17:49:26.490Z,14.90
2018-04-28T17:53:59.689Z,14.80
2018-04-28T17:58:32.860Z,14.70
2018-04-28T18:03:06.066Z,14.60
2018-04-28T18:07:39.455Z,14.50
2018-04-28T18:12:12.711Z,14.20
2018-04-28T18:16:46.318Z,14.00
2018-04-28T18:21:19.512Z,13.80
2018-04-28T18:25:52.733Z,13.50
2018-04-28T18:30:26.008Z,13.20
2018-04-28T18:34:59.221Z,13.00
2018-04-28T18:39:32.406Z,12.80
2018-04-28T18:44:06.362Z,12.60
2018-04-28T18:48:39.604Z,12.50
2018-04-28T18:53:13.634Z,12.70
2018-04-28T18:57:48.697Z,12.80
2018-04-28T19:02:21.898Z,12.70
2018-04-28T19:06:55.061Z,12.70
2018-04-28T19:11:28.262Z,12.60
2018-04-28T19:16:01.468Z,12.50
2018-04-28T19:20:34.666Z,12.30
2018-04-28T19:25:07.825Z,12.20
2018-04-28T19:29:41.061Z,12.10
2018-04-28T19:34:15.034Z,12.10
2018-04-28T19:38:48.725Z,12.00
2018-04-28T19:43:22.903Z,12.10
2018-04-28T19:47:57.061Z,12.00
2018-04-28T19:52:30.430Z,11.80
2018-04-28T19:57:03.598Z,11.70
2018-04-28T20:01:36.794Z,11.70
2018-04-28T20:06:10.910Z,11.80
2018-04-28T20:10:44.106Z,11.80
2018-04-28T20:15:19.339Z,11.50
2018-04-28T20:19:52.530Z,11.50
2018-04-28T20:24:37.506Z,11.40
2018-04-28T20:29:10.758Z,11.30
2018-04-28T20:33:43.932Z,11.20
2018-04-28T20:38:17.132Z,11.20
2018-04-28T20:42:50.332Z,11.00
2018-04-28T20:47:23.614Z,11.00
2018-04-28T20:51:56.806Z,11.00
2018-04-28T20:56:30.754Z,10.90
2018-04-28T21:01:03.938Z,10.80
2018-04-28T21:05:37.908Z,11.10
2018-04-28T21:10:11.102Z,11.00
2018-04-28T21:14:44.293Z,11.10
2018-04-28T21:19:17.502Z,11.00
2018-04-28T21:23:50.688Z,10.90
2018-04-28T21:28:24.621Z,10.60
2018-04-28T21:32:58.571Z,10.50
2018-04-28T21:37:31.782Z,10.40
2018-04-28T21:42:05.126Z,10.60
2018-04-28T21:46:38.284Z,10.50
2018-04-28T21:51:11.478Z,10.50
2018-04-28T21:55:44.670Z,10.30
2018-04-28T22:00:18.624Z,10.10
2018-04-28T22:04:51.814Z,10.10
2018-04-28T22:09:25.029Z,10.00
2018-04-28T22:13:58.221Z,10.00
2018-04-28T22:18:31.414Z,10.00
2018-04-28T22:23:05.405Z,9.90
2018-04-28T22:27:38.592Z,9.80
2018-04-28T22:32:11.784Z,9.80
2018-04-28T22:36:44.962Z,9.80
2018-04-28T22:41:19.001Z,9.80
2018-04-28T22:45:52.189Z,9.70
2018-04-28T22:50:25.422Z,9.70
2018-04-28T22:54:58.612Z,9.70
2018-04-28T22:59:32.590Z,9.60
2018-04-28T23:04:05.773Z,9.60
2018-04-28T23:08:38.964Z,9.60
2018-04-28T23:13:12.334Z,9.70
2018-04-28T23:17:45.517Z,9.60
2018-04-28T23:22:18.665Z,9.60
2018-04-28T23:26:52.757Z,9.20
2018-04-28T23:31:25.943Z,9.20
2018-04-28T23:35:59.457Z,9.20
2018-04-28T23:40:32.634Z,9.30
2018-04-28T23:45:06.587Z,9.20
2018-04-28T23:49:39.822Z,9.10
2018-04-28T23:54:13.022Z,9.20
2018-04-28T23:58:46.219Z,9.00
